createdAt,value
2018-07-08T00:32:28.428Z,86.70
2018-07-08T00:35:02.458Z,86.40
2018-07-08T00:37:36.346Z,85.80
2018-07-08T00:40:10.395Z,84.90
2018-07-08T00:42:44.425Z,83.60
2018-07-08T00:45:18.366Z,82.60
2018-07-08T00:47:52.216Z,81.70
2018-07-08T00:50:26.170Z,81.00
2018-07-08T00:52:59.990Z,80.60
2018-07-08T00:55:34.198Z,79.90
2018-07-08T00:58:08.056Z,78.70
2018-07-08T01:00:42.435Z,77.90
2018-07-08T01:05:49.409Z,76.10
2018-07-08T01:08:24.010Z,75.30
2018-07-08T01:10:58.654Z,74.60
2018-07-08T01:13:32.527Z,74.20
2018-07-08T01:16:06.594Z,73.60
2018-07-08T01:23:45.904Z,72.70
2018-07-08T01:26:23.263Z,72.40
2018-07-08T01:34:08.307Z,72.10
2018-07-08T01:36:43.951Z,71.60
2018-07-08T01:39:19.911Z,71.00
2018-07-08T01:41:55.660Z,70.30
2018-07-08T01:44:31.019Z,70.00
2018-07-08T01:47:07.275Z,69.70
2018-07-08T01:49:42.550Z,69.20
2018-07-08T01:54:53.575Z,68.40
2018-07-08T01:57:30.052Z,67.80
2018-07-08T02:00:05.336Z,67.60
2018-07-08T02:02:41.312Z,67.60
2018-07-08T02:05:16.748Z,67.50
2018-07-08T02:07:52.095Z,67.10
2018-07-08T02:10:27.212Z,66.80
2018-07-08T02:13:05.121Z,66.40
2018-07-08T02:18:17.993Z,66.30
2018-07-08T02:20:53.843Z,66.20
2018-07-08T02:23:29.630Z,65.40
2018-07-08T02:26:04.260Z,65.40
2018-07-08T02:28:42.701Z,65.80
2018-07-08T02:33:53.282Z,64.00
2018-07-08T02:36:29.291Z,63.40
2018-07-08T02:39:07.383Z,62.80
2018-07-08T02:41:43.687Z,62.80
2018-07-08T02:44:21.363Z,63.70
2018-07-08T02:46:57.084Z,63.80
2018-07-08T02:49:33.064Z,64.40
2018-07-08T02:52:10.498Z,64.20
2018-07-08T02:54:45.926Z,63.70
2018-07-08T02:57:21.566Z,64.00
2018-07-08T02:59:56.939Z,64.10
2018-07-08T03:02:32.245Z,63.20
2018-07-08T03:05:08.144Z,63.00
2018-07-08T03:07:43.204Z,62.60
2018-07-08T03:10:18.393Z,61.50
2018-07-08T03:12:56.285Z,61.80
2018-07-08T03:15:32.474Z,61.40
2018-07-08T03:18:08.290Z,61.20
2018-07-08T03:28:30.748Z,61.70
2018-07-08T03:31:06.315Z,61.80
2018-07-08T03:33:43.143Z,62.00
2018-07-08T03:36:18.142Z,62.20
2018-07-08T03:41:29.292Z,62.70
2018-07-08T03:44:04.895Z,62.50
2018-07-08T03:46:42.331Z,62.00
2018-07-08T03:49:18.190Z,62.20
2018-07-08T03:51:55.263Z,62.30
2018-07-08T03:54:36.856Z,62.20
2018-07-08T03:57:13.393Z,62.70
2018-07-08T03:59:49.751Z,63.00
2018-07-08T04:02:25.361Z,63.60
2018-07-08T04:05:02.315Z,63.60
2018-07-08T04:07:39.621Z,64.20
2018-07-08T04:10:16.262Z,64.80
2018-07-08T04:12:52.301Z,65.30
2018-07-08T04:15:28.698Z,65.60
2018-07-08T04:18:11.064Z,65.40
2018-07-08T04:20:46.615Z,65.30
2018-07-08T04:23:21.929Z,64.80
2018-07-08T04:25:57.672Z,64.30
2018-07-08T04:31:06.505Z,62.40
2018-07-08T04:36:16.161Z,62.80
2018-07-08T04:38:51.920Z,62.80
2018-07-08T04:44:02.903Z,63.70
2018-07-08T04:46:38.574Z,64.30
2018-07-08T04:49:14.363Z,64.60
2018-07-08T04:51:49.647Z,64.20
2018-07-08T04:54:24.529Z,63.70
2018-07-08T04:57:00.695Z,63.40
2018-07-08T04:59:37.821Z,63.00
2018-07-08T05:04:47.741Z,61.80
2018-07-08T05:07:23.541Z,61.30
2018-07-08T05:15:08.086Z,58.50
2018-07-08T05:17:43.992Z,58.10
2018-07-08T05:20:18.530Z,57.70
2018-07-08T05:22:54.753Z,57.50
2018-07-08T05:25:30.294Z,57.90
2018-07-08T05:28:07.342Z,58.50
2018-07-08T05:30:46.354Z,58.60
2018-07-08T05:33:23.958Z,58.70
2018-07-08T05:35:59.769Z,58.70
2018-07-08T05:38:36.159Z,58.80
2018-07-08T05:41:11.791Z,59.00
2018-07-08T05:46:21.100Z,60.40
2018-07-08T05:48:57.559Z,61.00
2018-07-08T05:51:32.253Z,60.90
2018-07-08T05:54:07.900Z,61.20
2018-07-08T05:56:43.109Z,61.30
2018-07-08T06:01:49.290Z,61.90
2018-07-08T06:04:23.095Z,62.30
2018-07-08T06:06:56.996Z,62.90
2018-07-08T06:12:05.614Z,63.90
2018-07-08T06:24:52.099Z,63.50
2018-07-08T06:27:26.137Z,63.60
2018-07-08T06:30:00.091Z,63.50
2018-07-08T06:35:06.426Z,63.00
2018-07-08T06:37:39.892Z,63.20
2018-07-08T06:40:13.847Z,62.80
2018-07-08T06:42:47.671Z,63.20
2018-07-08T06:45:21.200Z,63.70
2018-07-08T06:47:55.612Z,64.40
2018-07-08T06:53:01.416Z,65.10
2018-07-08T06:55:35.443Z,65.50
2018-07-08T06:58:09.623Z,65.90
2018-07-08T07:00:44.128Z,65.90
2018-07-08T07:03:17.925Z,65.60
2018-07-08T07:05:51.293Z,65.90
2018-07-08T07:08:25.277Z,66.30
2018-07-08T07:10:58.872Z,66.50
2018-07-08T07:13:32.433Z,66.80
2018-07-08T07:16:06.361Z,67.00
2018-07-08T07:18:40.318Z,67.10
2018-07-08T07:21:13.939Z,66.80
2018-07-08T07:28:54.064Z,65.20
2018-07-08T07:31:28.332Z,64.20
2018-07-08T07:34:02.419Z,63.70
2018-07-08T07:36:36.491Z,63.00
2018-07-08T07:39:10.930Z,62.50
2018-07-08T07:41:44.558Z,62.40
2018-07-08T07:44:18.436Z,62.90
2018-07-08T07:46:52.549Z,63.10
2018-07-08T07:49:26.622Z,63.40
2018-07-08T07:52:00.580Z,63.30
2018-07-08T07:54:34.008Z,62.70
2018-07-08T07:57:07.784Z,63.00
2018-07-08T07:59:41.891Z,63.10
2018-07-08T08:02:15.330Z,63.30
2018-07-08T08:07:21.638Z,64.20
2018-07-08T08:09:55.457Z,64.20
2018-07-08T08:12:29.379Z,64.10
2018-07-08T08:15:03.183Z,63.50
2018-07-08T08:17:37.327Z,63.30
2018-07-08T08:20:11.212Z,63.20
2018-07-08T08:22:45.416Z,63.00
2018-07-08T08:25:19.024Z,62.60
2018-07-08T08:27:52.826Z,62.10
2018-07-08T08:30:26.616Z,61.60
2018-07-08T08:33:00.359Z,61.00
2018-07-08T08:35:34.212Z,60.60
2018-07-08T08:38:07.712Z,60.60
2018-07-08T08:40:41.579Z,60.80
2018-07-08T08:43:15.300Z,60.40
2018-07-08T08:45:48.789Z,60.60
2018-07-08T08:50:55.537Z,64.00
2018-07-08T08:53:29.116Z,65.00
2018-07-08T08:56:12.834Z,65.40
2018-07-08T08:58:46.859Z,65.90
2018-07-08T09:01:20.882Z,66.40
2018-07-08T09:03:54.849Z,66.90
2018-07-08T09:06:29.154Z,67.00
2018-07-08T09:53:12.047Z,67.30
2018-07-08T09:58:17.988Z,70.60
2018-07-08T10:03:23.761Z,70.40
2018-07-08T10:05:58.217Z,70.40
2018-07-08T10:08:32.466Z,70.20
2018-07-08T10:11:06.233Z,70.00
2018-07-08T10:13:40.119Z,69.90
2018-07-08T10:16:13.794Z,69.80
2018-07-08T10:18:47.572Z,70.70
2018-07-08T10:21:21.387Z,69.40
2018-07-08T10:23:55.115Z,68.50
2018-07-08T10:26:28.875Z,67.70
2018-07-08T10:29:02.465Z,68.00
2018-07-08T10:31:44.825Z,67.80
2018-07-08T10:34:18.909Z,67.80
2018-07-08T10:36:52.739Z,68.00
2018-07-08T10:39:26.523Z,68.30
2018-07-08T10:42:00.513Z,68.10
2018-07-08T10:44:34.312Z,67.80
2018-07-08T10:47:07.788Z,68.00
2018-07-08T10:52:14.064Z,67.90
2018-07-08T10:59:52.852Z,69.00
2018-07-08T11:02:26.921Z,69.00
2018-07-08T11:07:34.939Z,68.80
2018-07-08T11:10:08.857Z,68.80
2018-07-08T11:12:42.305Z,69.10
2018-07-08T11:15:15.931Z,69.30
2018-07-08T11:17:50.503Z,69.40
2018-07-08T11:20:25.349Z,69.50
2018-07-08T11:23:00.084Z,69.80
2018-07-08T11:25:33.871Z,70.10
2018-07-08T11:28:07.360Z,71.20
2018-07-08T11:30:41.166Z,70.70
2018-07-08T11:33:14.811Z,70.90
2018-07-08T11:35:49.177Z,71.30
2018-07-08T11:38:23.840Z,71.40
2018-07-08T11:40:57.852Z,71.50
2018-07-08T11:43:31.836Z,71.50
2018-07-08T11:46:06.040Z,71.70
2018-07-08T11:48:40.548Z,72.00
2018-07-08T11:51:14.574Z,72.30
2018-07-08T11:53:48.353Z,72.50
2018-07-08T11:58:54.864Z,72.90
2018-07-08T12:33:59.966Z,73.10
2018-07-08T12:39:06.733Z,74.10
2018-07-08T12:41:40.615Z,74.50
2018-07-08T12:44:13.900Z,74.70
2018-07-08T12:46:47.795Z,74.90
2018-07-08T12:49:21.334Z,75.00
2018-07-08T12:51:57.153Z,75.20
2018-07-08T12:54:31.054Z,75.40
2018-07-08T12:57:04.620Z,75.50
2018-07-08T12:59:38.807Z,75.70
2018-07-08T13:02:12.543Z,76.00
2018-07-08T13:07:19.119Z,76.30
2018-07-08T13:09:52.848Z,76.40
2018-07-08T13:12:26.599Z,76.40
2018-07-08T13:15:00.391Z,76.40
2018-07-08T13:17:33.858Z,76.30
2018-07-08T13:20:07.872Z,76.30
2018-07-08T13:22:41.616Z,76.20
2018-07-08T13:25:14.840Z,76.30
2018-07-08T13:27:48.682Z,76.40
2018-07-08T13:30:22.330Z,76.60
2018-07-08T13:32:56.058Z,76.70
2018-07-08T13:35:30.944Z,77.00
2018-07-08T13:38:06.133Z,77.30
2018-07-08T13:40:41.088Z,77.90
2018-07-08T13:43:14.818Z,77.90
2018-07-08T13:45:49.182Z,78.10
2018-07-08T13:48:23.119Z,78.50
2018-07-08T13:50:56.848Z,78.70
2018-07-08T13:53:30.398Z,79.00
2018-07-08T13:56:04.049Z,79.20
2018-07-08T13:58:37.727Z,79.50
2018-07-08T14:01:11.324Z,79.50
2018-07-08T14:03:45.024Z,79.50
2018-07-08T14:06:18.619Z,79.60
2018-07-08T14:08:52.399Z,79.60
2018-07-08T14:11:26.388Z,79.50
2018-07-08T14:14:00.465Z,79.50
2018-07-08T14:16:34.367Z,79.50
2018-07-08T14:19:08.552Z,79.40
2018-07-08T14:21:43.870Z,79.40
2018-07-08T14:24:17.538Z,79.40
2018-07-08T14:26:51.772Z,79.40
2018-07-08T14:29:25.520Z,79.30
2018-07-08T14:32:00.126Z,79.60
2018-07-08T14:34:33.948Z,79.40
2018-07-08T14:37:07.422Z,79.40
2018-07-08T14:39:42.259Z,79.30
2018-07-08T14:42:16.176Z,79.40
2018-07-08T14:44:49.746Z,79.40
2018-07-08T14:52:28.557Z,79.60
2018-07-08T14:55:02.903Z,79.50
2018-07-08T14:57:36.695Z,79.70
2018-07-08T15:00:10.190Z,79.80
2018-07-08T15:02:44.047Z,79.90
2018-07-08T15:05:17.676Z,80.00
2018-07-08T15:07:51.695Z,80.00
2018-07-08T15:10:25.548Z,80.30
2018-07-08T15:18:04.679Z,80.40
2018-07-08T15:20:38.807Z,80.50
2018-07-08T15:23:11.939Z,80.70
2018-07-08T15:25:45.532Z,80.80
2018-07-08T15:28:19.385Z,81.00
2018-07-08T15:30:54.206Z,81.30
2018-07-08T15:33:28.447Z,81.40
2018-07-08T15:36:02.062Z,81.40
2018-07-08T15:38:36.538Z,81.70
2018-07-08T15:41:10.273Z,81.80
2018-07-08T15:48:49.812Z,81.60
2018-07-08T15:51:24.258Z,81.60
2018-07-08T15:53:59.253Z,81.50
2018-07-08T15:56:33.562Z,81.40
2018-07-08T15:59:07.858Z,81.30
2018-07-08T16:01:41.704Z,81.20
2018-07-08T16:04:15.526Z,81.00
2018-07-08T16:06:49.576Z,81.10
2018-07-08T16:09:23.608Z,81.20
2018-07-08T16:11:57.663Z,81.30
2018-07-08T16:17:03.779Z,81.60
2018-07-08T16:19:37.774Z,81.80
2018-07-08T16:22:11.555Z,81.90
2018-07-08T16:29:51.098Z,82.00
2018-07-08T16:32:24.816Z,82.00
2018-07-08T16:34:58.707Z,82.00
2018-07-08T16:37:32.612Z,81.90
2018-07-08T16:40:07.100Z,81.90
2018-07-08T16:42:41.139Z,81.90
2018-07-08T16:45:15.342Z,81.90
2018-07-08T16:47:49.380Z,82.00
2018-07-08T16:50:23.519Z,82.10
2018-07-08T16:55:29.631Z,82.30
2018-07-08T16:58:03.571Z,82.40
2018-07-08T17:00:37.287Z,82.50
2018-07-08T17:03:11.112Z,82.60
2018-07-08T17:08:17.275Z,82.70
2018-07-08T17:10:51.392Z,82.90
2018-07-08T17:15:57.474Z,83.00
2018-07-08T17:18:31.705Z,83.10
2018-07-08T17:21:05.557Z,83.10
2018-07-08T17:23:40.339Z,83.20
2018-07-08T17:26:13.639Z,83.20
2018-07-08T17:28:47.614Z,83.40
2018-07-08T17:31:21.711Z,83.60
2018-07-08T17:33:55.822Z,83.80
2018-07-08T17:36:30.976Z,83.90
2018-07-08T17:41:37.144Z,84.10
2018-07-08T17:44:10.559Z,84.10
2018-07-08T17:46:44.453Z,84.00
2018-07-08T17:49:18.323Z,84.00
2018-07-08T17:51:52.284Z,84.00
2018-07-08T17:54:26.506Z,83.80
2018-07-08T17:56:59.943Z,83.80
2018-07-08T17:59:33.963Z,83.70
2018-07-08T18:02:07.790Z,83.60
2018-07-08T18:04:41.642Z,83.60
2018-07-08T18:07:15.467Z,83.60
2018-07-08T18:09:49.383Z,83.60
2018-07-08T18:12:24.236Z,83.60
2018-07-08T18:14:58.254Z,83.60
2018-07-08T18:20:04.155Z,83.60
2018-07-08T18:22:38.394Z,83.60
2018-07-08T18:25:11.975Z,83.60
2018-07-08T18:27:45.550Z,83.60
2018-07-08T18:30:19.128Z,83.60
2018-07-08T18:32:52.608Z,83.60
2018-07-08T18:35:26.516Z,84.30
2018-07-08T18:38:00.747Z,83.60
2018-07-08T18:40:34.930Z,83.60
2018-07-08T18:43:08.808Z,83.50
2018-07-08T18:45:42.420Z,83.40
2018-07-08T18:48:16.240Z,83.20
2018-07-08T18:50:49.760Z,83.10
2018-07-08T18:53:23.510Z,83.00
2018-07-08T18:55:57.195Z,82.90
2018-07-08T18:58:32.039Z,82.80
2018-07-08T19:01:05.480Z,82.70
2018-07-08T19:03:39.395Z,82.60
2018-07-08T19:06:13.079Z,82.40
2018-07-08T19:08:47.062Z,82.30
2018-07-08T19:11:20.937Z,82.30
2018-07-08T19:13:54.615Z,82.20
2018-07-08T19:16:28.722Z,82.20
2018-07-08T19:19:02.885Z,82.10
2018-07-08T19:21:36.917Z,81.80
2018-07-08T19:24:10.669Z,81.50
2018-07-08T19:29:16.382Z,80.60
2018-07-08T19:31:50.166Z,81.50
2018-07-08T19:34:23.941Z,82.50
2018-07-08T19:36:57.791Z,82.50
2018-07-08T19:39:31.585Z,82.80
2018-07-08T19:42:05.519Z,84.40
2018-07-08T19:44:39.469Z,86.00
2018-07-08T19:47:13.256Z,88.10
2018-07-08T19:49:47.035Z,88.70
2018-07-08T19:52:20.871Z,89.80
2018-07-08T19:54:54.814Z,90.30
2018-07-08T19:57:28.362Z,90.20
2018-07-08T20:00:02.111Z,90.10
2018-07-08T20:02:36.084Z,90.40
2018-07-08T20:05:09.982Z,90.80
2018-07-08T20:07:43.975Z,90.90
2018-07-08T20:10:17.803Z,90.60
2018-07-08T20:12:51.998Z,90.50
2018-07-08T20:15:25.784Z,90.40
2018-07-08T20:18:00.361Z,90.50
2018-07-08T20:20:34.089Z,90.20
2018-07-08T20:23:08.347Z,90.40
2018-07-08T20:25:42.099Z,90.70
2018-07-08T20:28:16.249Z,90.90
2018-07-08T20:30:50.288Z,91.00
2018-07-08T20:33:24.100Z,91.00
2018-07-08T20:35:58.831Z,90.90
2018-07-08T20:38:32.688Z,90.40
2018-07-08T20:41:06.218Z,90.80
2018-07-08T21:29:21.215Z,90.50
2018-07-08T21:31:54.893Z,90.30
2018-07-08T21:37:01.053Z,91.30
2018-07-08T21:42:07.854Z,91.20
2018-07-08T21:44:42.483Z,91.40
2018-07-08T21:47:16.895Z,91.30
2018-07-08T21:49:50.739Z,91.40
2018-07-08T21:52:24.679Z,91.40
2018-07-08T21:54:58.096Z,91.40
2018-07-08T21:57:31.880Z,91.30
2018-07-08T22:00:05.375Z,91.30
2018-07-08T22:02:39.156Z,91.10
2018-07-08T22:05:12.975Z,91.30
2018-07-08T22:07:51.191Z,91.40
2018-07-08T22:10:25.629Z,91.50
2018-07-08T22:13:00.089Z,91.40
2018-07-08T22:15:34.036Z,91.40
2018-07-08T22:18:07.665Z,91.40
2018-07-08T22:20:41.699Z,91.40
2018-07-08T22:25:48.132Z,91.20
2018-07-08T22:28:22.276Z,90.80
2018-07-08T22:30:55.962Z,90.80
2018-07-08T22:33:29.753Z,91.30
2018-07-08T22:36:03.760Z,90.90
2018-07-08T23:31:55.488Z,90.80
2018-07-08T23:34:29.655Z,90.70
2018-07-08T23:37:03.802Z,92.20
2018-07-08T23:39:37.544Z,92.10
2018-07-08T23:42:10.920Z,92.10
2018-07-08T23:44:44.899Z,91.70
2018-07-08T23:47:19.231Z,91.80
2018-07-08T23:49:53.848Z,91.80
2018-07-08T23:52:27.471Z,91.50
2018-07-08T23:55:01.251Z,91.60
2018-07-08T23:57:35.131Z,91.50
